Time;durP1;ratioP1;P1;durP2;ratioP2;P2;SDS_P1;SDS_P2;PMS_P1;PMS_P2;Temp;Humidity;BMP_temperature;BMP_pressure;BME280_temperature;BME280_humidity;BME280_pressure;Samples;Min_cycle;Max_cycle;Signal;HPM_P1;HPM_P2
2021/07/23 00:00:00;;;;;;;10.98;6.53;;;26.60;42.40;;;;;;5076449;28;20031;-51
2021/07/23 00:02:25;;;;;;;9.60;6.28;;;26.60;42.40;;;;;;5094966;28;20024;-47
2021/07/23 00:04:52;;;;;;;9.68;6.47;;;26.60;42.40;;;;;;5094914;28;20068;-49
2021/07/23 00:07:17;;;;;;;11.13;6.80;;;26.60;42.40;;;;;;5076944;28;20383;-52
2021/07/23 00:09:43;;;;;;;11.30;6.65;;;26.50;42.50;;;;;;5095172;28;20031;-51
2021/07/23 00:12:09;;;;;;;13.93;6.93;;;26.50;42.50;;;;;;5076367;28;20022;-50
2021/07/23 00:14:35;;;;;;;20.65;6.65;;;26.50;42.50;;;;;;5094782;28;20034;-52
2021/07/23 00:17:01;;;;;;;10.15;6.47;;;26.50;42.60;;;;;;5076472;28;20372;-48
2021/07/23 00:19:27;;;;;;;10.68;6.90;;;26.40;42.60;;;;;;5076648;28;20016;-51
2021/07/23 00:21:53;;;;;;;8.75;6.72;;;26.40;42.70;;;;;;5094721;28;20016;-53
2021/07/23 00:24:19;;;;;;;9.23;6.95;;;26.30;42.80;;;;;;5076610;28;20031;-51
2021/07/23 00:26:52;;;;;;;19.05;6.80;;;26.30;42.80;;;;;;5094937;28;20370;-50
2021/07/23 00:29:19;;;;;;;10.50;6.97;;;26.30;42.90;;;;;;5094121;28;20082;-52
2021/07/23 00:31:45;;;;;;;11.57;6.85;;;26.30;42.80;;;;;;5094621;28;20293;-49
2021/07/23 00:34:11;;;;;;;9.02;6.82;;;26.30;42.80;;;;;;5094112;28;20366;-52
2021/07/23 00:36:37;;;;;;;14.00;6.80;;;26.30;42.80;;;;;;5095047;28;20089;-47
2021/07/23 00:39:03;;;;;;;9.30;6.45;;;26.30;42.90;;;;;;5094496;28;20042;-52
2021/07/23 00:41:28;;;;;;;10.77;6.57;;;26.30;42.90;;;;;;5076552;28;20455;-49
2021/07/23 00:43:54;;;;;;;12.48;6.97;;;26.30;43.00;;;;;;5076388;28;20024;-50
2021/07/23 00:46:23;;;;;;;11.95;7.05;;;26.20;42.90;;;;;;5075815;28;20024;-50
2021/07/23 00:48:49;;;;;;;12.10;6.95;;;26.20;42.90;;;;;;5076382;28;20108;-52
2021/07/23 00:51:15;;;;;;;10.43;6.53;;;26.20;43.00;;;;;;5075507;28;20118;-49
2021/07/23 00:53:40;;;;;;;10.80;6.80;;;26.20;43.10;;;;;;5076173;28;20024;-49
2021/07/23 00:56:10;;;;;;;7.45;6.07;;;26.20;43.20;;;;;;5090747;28;20016;-52
2021/07/23 00:58:37;;;;;;;13.18;7.45;;;26.10;43.20;;;;;;5079325;28;20020;-53
2021/07/23 01:01:03;;;;;;;9.63;6.78;;;26.10;43.20;;;;;;5081721;28;20028;-50
2021/07/23 01:03:29;;;;;;;10.57;6.82;;;26.10;43.20;;;;;;5088020;28;20035;-49
2021/07/23 01:05:56;;;;;;;12.85;6.60;;;26.10;43.20;;;;;;5091480;28;20026;-50
2021/07/23 01:08:22;;;;;;;12.30;7.05;;;26.10;43.40;;;;;;5093528;28;20031;-51
2021/07/23 01:10:48;;;;;;;10.38;6.80;;;26.10;43.40;;;;;;5091064;28;20028;-52
2021/07/23 01:13:14;;;;;;;11.38;7.32;;;26.00;43.40;;;;;;5088075;28;20493;-53
2021/07/23 01:15:40;;;;;;;10.52;7.22;;;26.00;43.40;;;;;;5091590;28;20024;-49
2021/07/23 01:18:06;;;;;;;10.95;6.85;;;26.00;43.60;;;;;;5074173;28;20020;-53
2021/07/23 01:20:32;;;;;;;8.52;6.97;;;26.00;43.50;;;;;;5091108;28;20024;-52
2021/07/23 01:23:00;;;;;;;15.18;6.88;;;26.10;43.50;;;;;;5069651;28;20028;-52
2021/07/23 01:25:27;;;;;;;8.98;6.72;;;26.10;43.40;;;;;;5091279;28;20127;-49
2021/07/23 01:27:54;;;;;;;10.20;6.75;;;26.10;43.40;;;;;;5092648;28;20415;-49
2021/07/23 01:30:25;;;;;;;9.13;6.65;;;26.10;43.40;;;;;;5090516;28;20111;-51
2021/07/23 01:32:51;;;;;;;10.00;6.80;;;26.00;43.40;;;;;;5066571;28;20299;-52
2021/07/23 01:35:18;;;;;;;9.93;6.85;;;26.00;43.40;;;;;;5088917;28;20486;-51
2021/07/23 01:37:48;;;;;;;9.23;6.88;;;25.90;43.50;;;;;;5091271;28;20024;-50
2021/07/23 01:40:15;;;;;;;9.55;6.68;;;25.90;43.60;;;;;;5057749;28;20028;-56
2021/07/23 01:42:42;;;;;;;10.07;7.13;;;25.90;44.30;;;;;;5086102;28;20081;-51
2021/07/23 01:45:08;;;;;;;10.60;7.75;;;25.90;43.70;;;;;;5071319;28;20031;-51
2021/07/23 01:47:35;;;;;;;12.05;6.57;;;25.80;43.60;;;;;;5073389;28;20028;-52
2021/07/23 01:50:38;;;;;;;10.10;7.68;;;25.80;43.60;;;;;;5094032;28;20063;-54
2021/07/23 01:53:04;;;;;;;12.35;7.85;;;25.70;43.80;;;;;;5092434;28;20058;-51
2021/07/23 01:55:30;;;;;;;10.38;6.93;;;25.80;43.70;;;;;;5074825;28;20032;-51
2021/07/23 01:57:56;;;;;;;12.43;6.90;;;25.70;43.70;;;;;;5074839;28;20030;-48
2021/07/23 02:00:22;;;;;;;15.00;7.70;;;25.70;43.80;;;;;;5092296;28;20024;-50
2021/07/23 02:02:48;;;;;;;13.80;7.57;;;25.70;43.80;;;;;;5074206;28;20387;-49
2021/07/23 02:05:13;;;;;;;10.18;6.53;;;25.70;43.80;;;;;;5092425;28;20471;-49
2021/07/23 02:07:39;;;;;;;11.90;7.28;;;25.70;43.70;;;;;;5092925;28;20020;-48
2021/07/23 02:10:06;;;;;;;9.57;7.57;;;25.70;43.80;;;;;;5092081;28;20466;-53
2021/07/23 02:12:31;;;;;;;9.07;7.00;;;25.60;43.80;;;;;;5074611;28;20028;-49
2021/07/23 02:14:57;;;;;;;13.27;7.75;;;25.60;43.90;;;;;;5092826;28;20036;-51
2021/07/23 02:17:23;;;;;;;10.50;7.55;;;25.60;43.90;;;;;;5092282;28;20028;-49
2021/07/23 02:19:48;;;;;;;10.68;7.40;;;25.70;44.00;;;;;;5092457;28;20027;-51
2021/07/23 02:22:14;;;;;;;11.07;7.90;;;25.70;44.00;;;;;;5092188;28;20024;-51
2021/07/23 02:24:40;;;;;;;11.55;7.68;;;25.60;43.90;;;;;;5092296;28;20174;-50
2021/07/23 02:27:05;;;;;;;9.48;6.97;;;25.60;43.90;;;;;;5092040;28;20108;-50
2021/07/23 02:29:31;;;;;;;11.95;7.85;;;25.60;44.00;;;;;;5092387;28;20490;-47
2021/07/23 02:31:57;;;;;;;11.73;7.68;;;25.60;43.90;;;;;;5074342;28;20032;-53
2021/07/23 02:34:23;;;;;;;9.63;6.68;;;25.70;44.00;;;;;;5091625;28;20371;-50
2021/07/23 02:36:49;;;;;;;8.60;6.97;;;25.60;43.80;;;;;;5091914;28;20028;-49
2021/07/23 02:39:15;;;;;;;11.88;7.78;;;25.60;43.80;;;;;;5091922;28;20079;-48
2021/07/23 02:41:40;;;;;;;9.20;6.80;;;25.50;43.90;;;;;;5092676;28;20482;-49
2021/07/23 02:44:06;;;;;;;13.23;7.10;;;25.50;44.10;;;;;;5091628;28;20394;-49
2021/07/23 02:46:32;;;;;;;15.60;7.47;;;25.50;44.00;;;;;;5092379;28;20047;-51
2021/07/23 02:48:58;;;;;;;10.82;7.03;;;25.50;44.10;;;;;;5074034;28;20024;-52
2021/07/23 02:51:24;;;;;;;10.07;7.10;;;25.40;44.10;;;;;;5091751;28;20032;-47
2021/07/23 02:53:49;;;;;;;11.50;7.63;;;25.40;44.30;;;;;;5073934;28;20028;-49
2021/07/23 02:56:15;;;;;;;10.98;7.40;;;25.30;44.30;;;;;;5091374;28;20051;-47
2021/07/23 02:58:42;;;;;;;12.27;8.30;;;25.30;44.30;;;;;;5092460;28;20016;-52
2021/07/23 03:01:10;;;;;;;10.02;7.43;;;25.30;44.30;;;;;;5091559;28;20031;-50
2021/07/23 03:03:36;;;;;;;9.73;7.18;;;25.40;44.20;;;;;;5091880;28;20024;-49
2021/07/23 03:06:02;;;;;;;12.07;7.03;;;25.30;44.10;;;;;;5092185;28;20470;-49
2021/07/23 03:08:28;;;;;;;10.75;7.05;;;25.30;44.10;;;;;;5091338;28;20108;-48
2021/07/23 03:10:54;;;;;;;11.95;7.07;;;25.30;44.20;;;;;;5092130;28;20169;-48
2021/07/23 03:13:20;;;;;;;12.23;7.20;;;25.20;44.20;;;;;;5074659;28;20398;-53
2021/07/23 03:15:46;;;;;;;10.65;6.78;;;25.20;44.20;;;;;;5078043;28;20032;-48
2021/07/23 03:18:12;;;;;;;9.57;7.47;;;25.20;44.20;;;;;;5095235;28;20048;-50
2021/07/23 03:20:38;;;;;;;10.27;7.00;;;25.20;44.20;;;;;;5076567;28;20027;-50
2021/07/23 03:23:05;;;;;;;14.38;7.93;;;25.20;44.20;;;;;;5095774;28;20082;-49
2021/07/23 03:25:31;;;;;;;18.45;7.28;;;25.20;44.30;;;;;;5095499;28;20070;-50
2021/07/23 03:27:56;;;;;;;9.20;7.35;;;25.20;44.20;;;;;;5095684;28;20511;-52
2021/07/23 03:30:22;;;;;;;10.50;7.55;;;25.10;44.20;;;;;;5094758;28;20028;-53
2021/07/23 03:32:48;;;;;;;12.98;7.85;;;25.10;44.30;;;;;;5095641;28;20462;-49
2021/07/23 03:35:14;;;;;;;11.48;6.95;;;25.10;44.40;;;;;;5076441;28;20043;-52
2021/07/23 03:37:39;;;;;;;14.40;7.65;;;25.10;44.60;;;;;;5095255;28;20020;-52
2021/07/23 03:40:07;;;;;;;13.07;7.38;;;25.00;44.60;;;;;;5094971;28;20048;-56
2021/07/23 03:42:33;;;;;;;9.63;7.18;;;25.00;44.60;;;;;;5094891;28;20039;-52
2021/07/23 03:44:59;;;;;;;11.18;6.88;;;25.00;44.60;;;;;;5076874;28;20077;-52
2021/07/23 03:47:25;;;;;;;11.15;7.53;;;25.00;44.60;;;;;;5094588;28;20094;-49
2021/07/23 03:49:50;;;;;;;13.38;7.47;;;25.00;44.60;;;;;;5095111;28;20467;-52
2021/07/23 03:52:16;;;;;;;15.45;7.85;;;25.00;44.70;;;;;;5076382;28;20024;-48
2021/07/23 03:54:42;;;;;;;8.90;6.80;;;25.00;44.70;;;;;;5075595;28;20054;-52
2021/07/23 03:57:07;;;;;;;12.20;6.90;;;25.00;44.70;;;;;;5094400;28;20103;-52
2021/07/23 03:59:34;;;;;;;10.20;7.25;;;25.00;44.70;;;;;;5076662;28;20123;-48
2021/07/23 04:02:00;;;;;;;13.52;7.32;;;25.00;44.60;;;;;;5094970;28;20020;-47
2021/07/23 04:04:26;;;;;;;10.48;7.18;;;24.90;44.60;;;;;;5094389;28;20222;-51
2021/07/23 04:06:56;;;;;;;15.27;8.18;;;24.90;44.70;;;;;;5077068;28;20115;-52
2021/07/23 04:09:23;;;;;;;15.30;7.88;;;24.90;44.80;;;;;;5094381;28;20024;-51
2021/07/23 04:11:50;;;;;;;9.90;7.57;;;24.90;44.70;;;;;;5095048;28;20050;-52
2021/07/23 04:14:16;;;;;;;11.40;6.97;;;24.90;44.80;;;;;;5094419;28;20028;-48
2021/07/23 04:16:42;;;;;;;10.27;7.22;;;24.90;44.90;;;;;;5094678;28;20025;-53
2021/07/23 04:19:27;;;;;;;11.57;7.35;;;24.90;44.80;;;;;;5076187;28;20028;-51
2021/07/23 04:21:52;;;;;;;14.02;7.97;;;24.90;44.80;;;;;;5094655;28;20028;-52
2021/07/23 04:24:18;;;;;;;10.63;7.53;;;24.90;44.90;;;;;;5076089;28;20032;-49
2021/07/23 04:26:43;;;;;;;13.65;7.78;;;24.90;44.80;;;;;;5094332;28;20028;-48
2021/07/23 04:29:09;;;;;;;19.08;7.95;;;24.90;44.80;;;;;;5094270;28;20017;-49
2021/07/23 04:31:35;;;;;;;15.13;8.38;;;24.90;44.80;;;;;;5094355;28;20027;-50
2021/07/23 04:34:00;;;;;;;13.00;7.82;;;24.90;44.90;;;;;;5076627;28;20157;-50
2021/07/23 04:36:27;;;;;;;9.45;7.20;;;24.90;44.80;;;;;;5093719;28;20496;-49
2021/07/23 04:38:53;;;;;;;11.70;7.75;;;25.00;44.90;;;;;;5094153;28;20415;-51
2021/07/23 04:41:18;;;;;;;17.10;8.55;;;25.00;44.70;;;;;;5093584;28;20065;-49
2021/07/23 04:43:44;;;;;;;13.13;7.63;;;25.00;44.70;;;;;;5093928;28;20450;-50
2021/07/23 04:46:10;;;;;;;11.90;7.65;;;25.00;44.80;;;;;;5093960;28;20028;-56
2021/07/23 04:48:36;;;;;;;11.60;7.57;;;25.00;44.70;;;;;;5076289;28;20024;-50
2021/07/23 04:51:05;;;;;;;13.02;7.65;;;25.00;44.60;;;;;;5076242;28;20124;-48
2021/07/23 04:53:31;;;;;;;13.88;8.13;;;25.00;44.70;;;;;;5093540;28;20028;-51
2021/07/23 04:56:01;;;;;;;12.85;7.35;;;24.90;44.80;;;;;;5094095;28;20475;-49
2021/07/23 04:58:27;;;;;;;17.58;7.82;;;24.90;44.90;;;;;;5093426;28;20486;-48
2021/07/23 05:00:53;;;;;;;12.55;7.93;;;25.00;45.40;;;;;;5075917;28;20024;-47
2021/07/23 05:03:24;;;;;;;14.13;8.38;;;25.00;44.80;;;;;;5075127;28;20024;-49
2021/07/23 05:05:50;;;;;;;13.00;7.80;;;25.00;44.70;;;;;;5093829;28;20386;-47
2021/07/23 05:08:16;;;;;;;14.88;8.07;;;25.00;44.70;;;;;;5092490;28;20071;-50
2021/07/23 05:10:43;;;;;;;16.63;7.82;;;25.00;44.70;;;;;;5075366;28;20479;-47
2021/07/23 05:13:10;;;;;;;13.45;7.40;;;25.00;44.80;;;;;;5093518;28;20020;-46
2021/07/23 05:15:40;;;;;;;12.68;7.78;;;25.10;44.70;;;;;;5092565;28;20039;-49
2021/07/23 05:18:07;;;;;;;12.00;8.05;;;25.10;44.50;;;;;;5093425;28;20028;-47
2021/07/23 05:20:33;;;;;;;16.23;8.15;;;25.20;44.50;;;;;;5092612;28;20027;-52
2021/07/23 05:22:58;;;;;;;13.88;8.18;;;25.20;44.40;;;;;;5093121;28;20386;-51
2021/07/23 05:25:24;;;;;;;14.80;8.00;;;25.20;44.20;;;;;;5093025;28;20093;-48
2021/07/23 05:27:50;;;;;;;22.70;8.02;;;25.20;44.20;;;;;;5093440;28;20020;-46
2021/07/23 05:30:16;;;;;;;16.35;8.52;;;25.20;44.20;;;;;;5074474;28;20024;-48
2021/07/23 05:32:41;;;;;;;17.48;7.70;;;25.20;44.30;;;;;;5093202;28;20458;-51
2021/07/23 05:35:08;;;;;;;19.10;9.07;;;25.30;44.30;;;;;;5074699;28;20035;-49
2021/07/23 05:37:33;;;;;;;19.83;7.80;;;25.30;44.00;;;;;;5073033;28;20119;-49
2021/07/23 05:39:59;;;;;;;19.50;9.23;;;25.30;43.80;;;;;;5092765;28;20111;-46
2021/07/23 05:42:25;;;;;;;15.95;8.85;;;25.30;43.70;;;;;;5092079;28;20424;-50
2021/07/23 05:44:51;;;;;;;16.15;8.88;;;25.30;43.60;;;;;;5092575;28;20035;-47
2021/07/23 05:47:18;;;;;;;20.45;8.50;;;25.30;43.70;;;;;;5092121;28;20028;-52
2021/07/23 05:49:44;;;;;;;13.10;9.15;;;25.30;44.40;;;;;;5092312;28;20028;-48
2021/07/23 05:52:09;;;;;;;19.98;9.25;;;25.40;43.70;;;;;;5074042;28;20020;-48
2021/07/23 05:57:19;;;;;;;;;;;25.40;43.50;;;;;;5092623;28;20055;-52
2021/07/23 05:59:47;;;;;;;18.67;8.90;;;25.50;43.60;;;;;;5074533;28;20354;-52
2021/07/23 06:02:13;;;;;;;19.45;9.80;;;25.50;43.60;;;;;;5092026;28;20031;-53
2021/07/23 06:04:39;;;;;;;17.65;8.77;;;25.50;43.60;;;;;;5074353;28;20547;-49
2021/07/23 06:07:06;;;;;;;19.63;9.63;;;25.50;43.70;;;;;;5074108;28;20102;-49
2021/07/23 06:09:32;;;;;;;18.33;9.40;;;25.50;43.90;;;;;;5091829;28;20050;-48
2021/07/23 06:11:58;;;;;;;17.75;9.63;;;25.50;43.90;;;;;;5092074;28;20483;-49
2021/07/23 06:14:24;;;;;;;24.65;9.70;;;25.50;43.90;;;;;;5091639;28;20097;-50
2021/07/23 06:16:49;;;;;;;21.77;9.68;;;25.60;43.90;;;;;;5072934;28;20479;-49
2021/07/23 06:19:15;;;;;;;20.27;9.60;;;25.60;44.50;;;;;;5091457;28;20055;-50
2021/07/23 06:21:41;;;;;;;16.88;9.25;;;25.70;43.90;;;;;;5092250;28;20024;-51
2021/07/23 06:24:06;;;;;;;16.90;9.75;;;25.70;43.70;;;;;;5090642;28;20036;-50
2021/07/23 06:26:36;;;;;;;17.38;9.70;;;25.70;43.70;;;;;;5090639;28;20044;-52
2021/07/23 06:29:01;;;;;;;16.90;9.90;;;25.80;43.70;;;;;;5091539;28;20084;-48
2021/07/23 06:31:27;;;;;;;15.73;9.38;;;25.80;43.70;;;;;;5091728;28;20024;-51
2021/07/23 06:33:54;;;;;;;17.20;9.52;;;25.80;43.60;;;;;;5091311;28;20190;-54
2021/07/23 06:36:20;;;;;;;14.00;9.77;;;25.80;43.70;;;;;;5091697;28;20032;-50
2021/07/23 06:38:45;;;;;;;19.77;9.50;;;25.90;43.70;;;;;;5073679;28;20390;-50
2021/07/23 06:41:11;;;;;;;16.35;9.80;;;25.90;43.60;;;;;;5073060;28;20024;-49
2021/07/23 06:43:37;;;;;;;17.08;9.80;;;25.90;43.50;;;;;;5091500;28;20447;-47
2021/07/23 06:46:03;;;;;;;18.00;9.65;;;25.90;43.50;;;;;;5091195;28;20512;-49
2021/07/23 06:48:28;;;;;;;16.10;9.70;;;26.00;43.60;;;;;;5091236;28;20103;-47
2021/07/23 06:50:54;;;;;;;14.85;10.00;;;26.00;43.50;;;;;;5090906;28;20453;-56
2021/07/23 06:53:20;;;;;;;19.25;9.82;;;26.20;43.40;;;;;;5091184;28;20374;-53
2021/07/23 06:55:46;;;;;;;14.63;9.90;;;26.30;43.20;;;;;;5090503;28;20040;-52
2021/07/23 06:58:12;;;;;;;17.60;10.20;;;26.50;43.20;;;;;;5090891;28;20025;-50
2021/07/23 07:00:38;;;;;;;19.30;10.35;;;26.70;42.80;;;;;;5091601;28;20028;-53
2021/07/23 07:03:07;;;;;;;13.50;10.00;;;26.90;42.40;;;;;;5089857;28;20050;-51
2021/07/23 07:05:34;;;;;;;19.05;9.18;;;27.10;42.10;;;;;;5089824;28;20176;-54
2021/07/23 07:07:59;;;;;;;30.13;10.65;;;27.20;41.80;;;;;;5089825;28;20032;-53
2021/07/23 07:10:26;;;;;;;18.50;11.23;;;27.30;41.50;;;;;;5089603;28;20502;-57
2021/07/23 07:12:56;;;;;;;16.60;9.80;;;27.40;41.30;;;;;;5091223;28;20048;-53
2021/07/23 07:15:22;;;;;;;18.60;10.05;;;27.50;41.20;;;;;;5091053;28;20166;-48
2021/07/23 07:17:47;;;;;;;23.02;9.50;;;27.60;41.10;;;;;;5091476;28;20059;-53
2021/07/23 07:20:13;;;;;;;15.13;10.45;;;27.60;40.90;;;;;;5072632;28;20456;-49
2021/07/23 07:22:39;;;;;;;19.35;9.82;;;27.80;40.70;;;;;;5072986;28;20458;-51
2021/07/23 07:25:07;;;;;;;18.33;8.95;;;27.80;40.50;;;;;;5090216;28;20056;-47
2021/07/23 07:27:32;;;;;;;25.08;10.10;;;27.80;40.40;;;;;;5072969;28;20020;-51
2021/07/23 07:29:58;;;;;;;22.08;9.82;;;27.90;40.30;;;;;;5090582;28;20020;-51
2021/07/23 07:32:23;;;;;;;20.17;11.52;;;28.00;40.30;;;;;;5072804;28;20028;-50
2021/07/23 07:34:49;;;;;;;19.92;9.93;;;28.10;40.30;;;;;;5090944;28;20060;-47
2021/07/23 07:37:15;;;;;;;21.05;9.38;;;28.10;40.30;;;;;;5072350;28;20028;-54
2021/07/23 07:39:40;;;;;;;17.55;9.52;;;28.10;40.20;;;;;;5072357;28;20433;-48
2021/07/23 07:42:06;;;;;;;20.63;10.65;;;28.10;40.10;;;;;;5090035;28;20022;-53
2021/07/23 07:44:32;;;;;;;11.50;8.98;;;28.20;40.00;;;;;;5090694;28;20119;-48
2021/07/23 07:46:58;;;;;;;18.75;9.40;;;28.20;40.00;;;;;;5072256;28;20356;-49
2021/07/23 07:49:23;;;;;;;19.80;10.38;;;28.20;39.90;;;;;;5072584;28;20094;-52
2021/07/23 07:51:49;;;;;;;18.25;9.50;;;28.30;40.10;;;;;;5072529;28;20111;-51
2021/07/23 07:54:15;;;;;;;21.23;9.40;;;28.30;39.80;;;;;;5071517;28;20387;-52
2021/07/23 07:56:40;;;;;;;17.38;8.90;;;28.30;39.70;;;;;;5071823;28;20467;-50
2021/07/23 07:59:08;;;;;;;18.38;9.05;;;28.30;39.70;;;;;;5089379;28;20036;-51
2021/07/23 08:01:33;;;;;;;24.08;9.30;;;28.30;39.90;;;;;;5075267;28;20506;-48
2021/07/23 08:03:59;;;;;;;21.65;9.68;;;28.30;39.50;;;;;;5093220;28;20139;-50
2021/07/23 08:06:29;;;;;;;22.48;9.05;;;28.30;39.70;;;;;;5075673;28;20133;-48
2021/07/23 08:09:00;;;;;;;15.02;8.00;;;28.20;39.70;;;;;;5094598;28;20028;-52
2021/07/23 08:11:26;;;;;;;16.55;8.25;;;28.20;39.60;;;;;;5094289;28;20020;-51
2021/07/23 08:13:51;;;;;;;16.50;8.13;;;28.30;39.70;;;;;;5094295;28;20031;-52
2021/07/23 08:16:17;;;;;;;23.23;9.02;;;28.30;39.60;;;;;;5075538;28;20020;-52
2021/07/23 08:18:43;;;;;;;31.95;8.52;;;28.30;39.20;;;;;;5075952;28;20106;-51
2021/07/23 08:21:09;;;;;;;57.83;9.68;;;28.20;39.00;;;;;;5075225;28;20034;-50
2021/07/23 08:23:35;;;;;;;48.50;9.88;;;28.20;39.10;;;;;;5075779;28;20036;-50
2021/07/23 08:26:04;;;;;;;19.65;8.65;;;28.20;39.30;;;;;;5070929;28;20128;-52
2021/07/23 08:28:30;;;;;;;18.73;7.75;;;28.20;38.90;;;;;;5071723;28;20025;-54
2021/07/23 08:30:55;;;;;;;28.75;8.45;;;28.20;38.40;;;;;;5073391;28;20035;-54
2021/07/23 08:33:25;;;;;;;15.25;9.07;;;28.20;38.80;;;;;;5072061;28;20546;-51
2021/07/23 08:35:51;;;;;;;17.20;8.82;;;28.20;38.70;;;;;;5071915;28;20086;-52
2021/07/23 08:38:17;;;;;;;10.50;7.53;;;28.10;38.50;;;;;;5071632;28;20033;-48
2021/07/23 08:40:43;;;;;;;19.50;7.93;;;28.10;38.40;;;;;;5071962;28;20328;-51
2021/07/23 08:43:10;;;;;;;11.82;8.13;;;28.10;38.60;;;;;;5072968;28;20487;-49
2021/07/23 08:45:37;;;;;;;14.15;7.72;;;28.10;38.70;;;;;;5073419;28;20024;-50
2021/07/23 08:48:04;;;;;;;14.48;7.65;;;28.20;38.70;;;;;;5071462;28;20032;-47
2021/07/23 08:50:30;;;;;;;14.50;8.38;;;28.20;39.10;;;;;;5072141;28;20463;-47
2021/07/23 08:52:56;;;;;;;13.98;7.65;;;28.20;38.80;;;;;;5072126;28;20031;-48
2021/07/23 08:55:22;;;;;;;15.85;7.70;;;28.20;39.00;;;;;;5073208;28;20043;-49
2021/07/23 08:57:49;;;;;;;13.43;8.18;;;28.20;39.10;;;;;;5073326;28;20024;-47
2021/07/23 09:00:19;;;;;;;18.27;7.68;;;28.20;39.10;;;;;;5071012;28;20024;-50
2021/07/23 09:02:54;;;;;;;11.90;8.00;;;28.20;39.10;;;;;;5070767;28;20036;-56
2021/07/23 09:05:23;;;;;;;17.83;8.48;;;28.20;39.00;;;;;;5072374;28;20383;-50
2021/07/23 09:07:48;;;;;;;21.55;8.90;;;28.30;39.10;;;;;;5071732;28;20029;-52
2021/07/23 09:10:22;;;;;;;16.50;8.65;;;28.30;38.70;;;;;;5072483;28;20040;-49
2021/07/23 09:12:50;;;;;;;18.08;8.55;;;28.20;38.70;;;;;;5071354;28;20028;-54
2021/07/23 09:15:41;;;;;;;40.92;34.13;;;28.30;38.60;;;;;;5072092;28;20028;-49
2021/07/23 09:18:18;;;;;;;23.48;14.32;;;28.20;37.20;;;;;;5070441;28;20028;-49
2021/07/23 09:20:55;;;;;;;25.08;14.15;;;28.20;37.40;;;;;;5071070;28;20452;-47
2021/07/23 09:23:30;;;;;;;15.38;10.52;;;28.20;37.70;;;;;;5071464;28;20107;-54
2021/07/23 09:26:03;;;;;;;43.40;9.38;;;28.20;37.90;;;;;;5054974;28;20048;-49
2021/07/23 09:28:34;;;;;;;28.65;9.32;;;28.20;37.50;;;;;;5071149;28;20031;-47
2021/07/23 09:31:04;;;;;;;28.58;9.27;;;28.30;37.90;;;;;;5071873;28;20032;-51
2021/07/23 09:33:49;;;;;;;23.75;8.48;;;28.30;37.40;;;;;;5071442;28;20058;-49
2021/07/23 09:36:15;;;;;;;24.40;9.15;;;28.20;37.10;;;;;;5072075;28;20156;-49
2021/07/23 09:38:43;;;;;;;17.98;8.45;;;28.20;37.20;;;;;;5072827;28;20067;-49
2021/07/23 09:41:22;;;;;;;16.10;8.38;;;28.20;37.30;;;;;;5070506;28;20028;-53
2021/07/23 09:44:02;;;;;;;34.53;9.32;;;28.20;37.50;;;;;;5071486;28;20031;-51
2021/07/23 09:46:35;;;;;;;36.17;10.05;;;28.20;37.30;;;;;;5070846;28;20033;-51
2021/07/23 09:49:18;;;;;;;17.73;9.20;;;28.20;37.20;;;;;;5071935;28;20030;-50
2021/07/23 09:51:44;;;;;;;28.53;9.80;;;28.20;37.20;;;;;;5071137;28;20043;-51
2021/07/23 09:54:09;;;;;;;20.13;8.52;;;28.40;37.30;;;;;;5070390;28;20041;-50
2021/07/23 09:56:35;;;;;;;14.07;8.25;;;28.30;37.40;;;;;;5072107;28;20021;-48
2021/07/23 09:59:06;;;;;;;15.57;8.73;;;28.40;37.30;;;;;;5071613;28;20488;-51
2021/07/23 10:01:42;;;;;;;11.20;8.77;;;28.40;37.10;;;;;;5072190;28;20083;-49
2021/07/23 10:04:33;;;;;;;21.58;8.18;;;28.40;37.00;;;;;;5071430;28;20440;-51
2021/07/23 10:07:12;;;;;;;25.35;14.63;;;28.40;36.70;;;;;;5071568;28;20353;-52
2021/07/23 10:09:42;;;;;;;19.67;13.50;;;28.40;36.10;;;;;;5071833;28;20375;-48
2021/07/23 10:12:10;;;;;;;21.55;16.60;;;28.40;36.20;;;;;;5071205;28;20031;-52
2021/07/23 10:14:45;;;;;;;20.25;13.75;;;28.40;36.30;;;;;;5071575;28;20059;-48
2021/07/23 10:17:31;;;;;;;19.63;10.48;;;28.40;36.10;;;;;;5071206;28;20020;-52
2021/07/23 10:19:57;;;;;;;14.68;10.02;;;28.40;36.50;;;;;;5071495;28;20394;-48
2021/07/23 10:22:26;;;;;;;15.65;9.88;;;28.40;36.70;;;;;;5069613;28;20180;-49
2021/07/23 10:24:52;;;;;;;14.68;9.10;;;28.40;36.80;;;;;;5071503;28;20059;-49
2021/07/23 10:27:17;;;;;;;15.15;8.82;;;28.50;36.80;;;;;;5069834;28;20459;-49
2021/07/23 10:29:54;;;;;;;9.80;7.78;;;28.50;36.70;;;;;;5071656;28;20111;-48
2021/07/23 10:32:28;;;;;;;11.35;8.25;;;28.50;36.30;;;;;;5070962;28;20368;-51
2021/07/23 10:35:13;;;;;;;19.30;12.10;;;28.50;36.50;;;;;;5070271;28;20463;-48
2021/07/23 10:37:52;;;;;;;22.50;15.60;;;28.50;36.30;;;;;;5071855;28;20044;-51
2021/07/23 10:40:21;;;;;;;27.60;19.38;;;28.50;35.80;;;;;;5071355;28;20024;-51
2021/07/23 10:42:47;;;;;;;19.65;14.48;;;28.50;35.80;;;;;;5070179;28;20025;-51
2021/07/23 10:45:19;;;;;;;19.27;11.43;;;28.50;35.90;;;;;;5069476;28;20029;-51
2021/07/23 10:47:47;;;;;;;16.52;10.90;;;28.50;35.80;;;;;;5071644;28;20032;-53
2021/07/23 10:50:27;;;;;;;11.60;9.38;;;28.60;36.00;;;;;;5069666;28;20432;-51
2021/07/23 10:52:54;;;;;;;12.40;9.43;;;28.50;35.70;;;;;;5071561;28;20100;-51
2021/07/23 10:55:25;;;;;;;12.80;8.23;;;28.60;35.60;;;;;;5069538;28;20043;-50
2021/07/23 10:58:09;;;;;;;16.70;8.60;;;28.60;35.80;;;;;;5069922;28;20490;-52
2021/07/23 11:00:48;;;;;;;20.05;8.68;;;28.50;35.60;;;;;;5071272;28;20356;-51
2021/07/23 11:03:35;;;;;;;12.30;8.23;;;28.50;35.50;;;;;;5070422;28;20118;-53
2021/07/23 11:06:12;;;;;;;12.43;7.72;;;28.50;35.00;;;;;;5071525;28;20056;-53
2021/07/23 11:08:50;;;;;;;18.60;8.63;;;28.60;35.30;;;;;;5071234;28;20032;-53
2021/07/23 11:11:18;;;;;;;11.40;7.50;;;28.50;35.20;;;;;;5069380;28;20031;-48
2021/07/23 11:13:44;;;;;;;13.77;7.38;;;28.60;35.20;;;;;;5069553;28;20024;-54
2021/07/23 11:16:18;;;;;;;13.80;8.55;;;28.50;35.30;;;;;;5070170;28;20036;-48
2021/07/23 11:19:00;;;;;;;14.52;8.50;;;28.40;35.50;;;;;;5069360;28;20056;-52
2021/07/23 11:21:41;;;;;;;21.17;7.90;;;28.50;35.00;;;;;;5068853;28;20039;-55
2021/07/23 11:24:11;;;;;;;25.40;10.02;;;28.60;35.10;;;;;;5070298;28;20027;-52
2021/07/23 11:26:38;;;;;;;14.38;8.95;;;28.60;35.00;;;;;;5069612;28;20048;-51
2021/07/23 11:29:04;;;;;;;17.75;8.57;;;28.70;35.10;;;;;;5070563;28;20024;-49
2021/07/23 11:31:36;;;;;;;20.90;9.65;;;28.70;35.30;;;;;;5068912;28;20094;-49
2021/07/23 11:34:25;;;;;;;16.77;8.35;;;28.70;35.40;;;;;;5069219;28;20028;-50
2021/07/23 11:36:51;;;;;;;19.42;9.05;;;28.70;35.50;;;;;;5072867;28;20046;-49
2021/07/23 11:39:17;;;;;;;13.20;9.05;;;28.80;35.50;;;;;;5072586;28;20528;-50
2021/07/23 11:42:05;;;;;;;15.57;8.13;;;28.70;35.70;;;;;;5073088;28;20372;-51
2021/07/23 11:44:32;;;;;;;13.77;8.02;;;28.60;35.90;;;;;;5073855;28;20032;-50
2021/07/23 11:46:58;;;;;;;15.18;8.25;;;28.70;35.20;;;;;;5074003;28;20395;-49
2021/07/23 11:49:31;;;;;;;13.25;8.27;;;28.70;35.20;;;;;;5074061;28;20028;-52
2021/07/23 11:51:57;;;;;;;17.02;8.68;;;28.80;35.30;;;;;;5072416;28;20032;-50
2021/07/23 11:54:23;;;;;;;15.98;8.13;;;28.80;35.10;;;;;;5073456;28;20075;-50
2021/07/23 11:56:49;;;;;;;16.08;8.80;;;28.80;35.00;;;;;;5072857;28;20455;-51
2021/07/23 11:59:14;;;;;;;13.93;8.95;;;28.80;35.80;;;;;;5072029;28;20043;-52
2021/07/23 12:01:41;;;;;;;11.63;7.93;;;28.80;35.10;;;;;;5074002;28;20025;-50
2021/07/23 12:04:10;;;;;;;13.05;8.60;;;28.80;35.00;;;;;;5073862;28;20020;-50
2021/07/23 12:06:44;;;;;;;13.25;8.68;;;28.90;35.20;;;;;;5073901;28;20059;-53
2021/07/23 12:09:10;;;;;;;15.43;8.68;;;28.90;35.00;;;;;;5072556;28;20115;-49
2021/07/23 12:11:37;;;;;;;11.20;8.05;;;28.90;35.00;;;;;;5073990;28;20056;-50
2021/07/23 12:14:08;;;;;;;15.15;8.02;;;28.90;35.10;;;;;;5073739;28;20028;-47
2021/07/23 12:16:52;;;;;;;17.90;9.48;;;28.90;35.20;;;;;;5072103;28;20035;-48
2021/07/23 12:19:19;;;;;;;34.22;8.98;;;28.90;34.70;;;;;;5071923;28;20111;-48
2021/07/23 12:21:45;;;;;;;24.60;8.23;;;28.90;34.30;;;;;;5073588;28;20089;-48
2021/07/23 12:24:11;;;;;;;22.63;8.18;;;28.90;34.50;;;;;;5072231;28;20125;-53
2021/07/23 12:26:39;;;;;;;16.40;8.48;;;28.90;34.70;;;;;;5073359;28;20106;-51
2021/07/23 12:29:10;;;;;;;16.50;7.97;;;29.00;34.70;;;;;;5073625;28;20104;-49
2021/07/23 12:31:39;;;;;;;14.27;11.48;;;29.00;34.70;;;;;;5073262;28;20029;-47
2021/07/23 12:34:23;;;;;;;14.75;8.43;;;29.00;34.20;;;;;;5073734;28;20490;-51
2021/07/23 12:36:53;;;;;;;16.33;8.93;;;29.00;34.50;;;;;;5073561;28;20035;-51
2021/07/23 12:39:22;;;;;;;16.27;8.85;;;29.00;34.40;;;;;;5072796;28;20107;-48
2021/07/23 12:41:49;;;;;;;16.20;11.13;;;29.00;34.60;;;;;;5073558;28;20139;-52
2021/07/23 12:44:17;;;;;;;15.93;10.30;;;29.10;34.70;;;;;;5071807;28;20107;-54